createdAt,value
2017-07-08T05:31:43.395Z,80.91
2017-07-08T05:32:08.870Z,80.71
2017-07-08T05:32:34.342Z,80.91
2017-07-08T05:32:59.810Z,80.43
2017-07-08T05:33:25.291Z,80.43
2017-07-08T05:33:50.769Z,81.2
2017-07-08T05:34:16.246Z,81.2
2017-07-08T05:34:41.742Z,80.43
2017-07-08T05:35:07.195Z,80.52
2017-07-08T05:35:32.679Z,80.91
2017-07-08T05:35:58.147Z,80.81
2017-07-08T05:36:23.621Z,80.62
2017-07-08T05:36:49.156Z,80.33
2017-07-08T05:37:14.628Z,80.43
2017-07-08T05:37:40.086Z,80.23
2017-07-08T05:38:05.573Z,80.14
2017-07-08T05:38:31.045Z,80.33
2017-07-08T05:38:56.506Z,80.43
2017-07-08T05:39:21.951Z,80.43
2017-07-08T05:39:47.413Z,81.1
2017-07-08T05:40:12.892Z,81.2
2017-07-08T05:40:38.366Z,80.52
2017-07-08T05:41:03.834Z,80.14
2017-07-08T05:41:29.304Z,80.33
2017-07-08T05:41:54.782Z,80.33
2017-07-08T05:42:20.258Z,80.23
2017-07-08T05:42:45.701Z,80.14
2017-07-08T05:43:11.184Z,80.14
2017-07-08T05:43:36.706Z,79.66
2017-07-08T05:44:02.181Z,79.94
2017-07-08T05:44:27.630Z,79.94
2017-07-08T05:44:53.077Z,79.94
2017-07-08T05:45:18.587Z,79.94
2017-07-08T05:45:44.036Z,79.94
2017-07-08T05:46:09.533Z,79.75
2017-07-08T05:46:34.961Z,79.85
2017-07-08T05:47:00.444Z,79.94
2017-07-08T05:47:25.922Z,80.14
2017-07-08T05:47:51.397Z,79.75
2017-07-08T05:48:16.942Z,80.04
2017-07-08T05:48:42.411Z,79.75
2017-07-08T05:49:07.887Z,79.75
2017-07-08T05:49:33.347Z,80.23
2017-07-08T05:49:58.827Z,79.85
2017-07-08T05:50:24.300Z,79.75
2017-07-08T05:50:49.768Z,79.94
2017-07-08T05:51:15.271Z,79.75
2017-07-08T05:51:40.733Z,79.75
2017-07-08T05:52:06.202Z,79.66
2017-07-08T05:52:31.663Z,79.75
2017-07-08T05:52:57.121Z,80.04
2017-07-08T05:53:22.615Z,79.85
2017-07-08T05:53:48.101Z,79.75
2017-07-08T05:54:13.592Z,79.94
2017-07-08T05:54:39.051Z,79.75
2017-07-08T05:55:04.513Z,79.85
2017-07-08T05:55:29.978Z,79.85
2017-07-08T05:55:55.481Z,79.85
2017-07-08T05:56:20.979Z,79.85
2017-07-08T05:56:46.438Z,79.75
2017-07-08T05:57:11.930Z,79.75
2017-07-08T05:57:37.388Z,79.94
2017-07-08T05:58:02.865Z,80.04
2017-07-08T05:58:28.316Z,79.94
2017-07-08T05:58:53.784Z,79.94
2017-07-08T05:59:19.280Z,79.85
2017-07-08T05:59:44.774Z,79.75
2017-07-08T06:00:10.227Z,79.75
2017-07-08T06:00:35.704Z,80.04
2017-07-08T06:01:01.161Z,79.94
2017-07-08T06:01:26.629Z,79.66
2017-07-08T06:01:52.098Z,79.36
2017-07-08T06:02:17.562Z,79.75
2017-07-08T06:02:43.029Z,79.75
2017-07-08T06:03:08.536Z,79.56
2017-07-08T06:03:33.993Z,79.66
2017-07-08T06:03:59.452Z,79.75
2017-07-08T06:04:24.936Z,79.56
2017-07-08T06:04:50.420Z,79.27
2017-07-08T06:05:15.872Z,79.17
2017-07-08T06:05:41.337Z,78.69
2017-07-08T06:06:06.785Z,78.59
2017-07-08T06:06:32.233Z,78.79
2017-07-08T06:06:57.704Z,78.98
2017-07-08T06:07:23.179Z,78.5
2017-07-08T06:07:48.646Z,78.59
2017-07-08T06:08:14.126Z,78.69
2017-07-08T06:08:39.590Z,78.69
2017-07-08T06:09:05.049Z,78.59
2017-07-08T06:09:30.525Z,78.5
2017-07-08T06:09:56.026Z,78.4
2017-07-08T06:10:21.498Z,78.88
2017-07-08T06:10:46.982Z,78.79
2017-07-08T06:11:12.479Z,79.17
2017-07-08T06:11:37.978Z,79.27
2017-07-08T06:12:03.452Z,79.46
2017-07-08T06:12:28.923Z,79.36
2017-07-08T06:12:54.418Z,79.36
2017-07-08T06:13:19.899Z,79.27
2017-07-08T06:13:45.366Z,79.17
2017-07-08T06:14:10.848Z,79.27
2017-07-08T06:14:36.300Z,79.27
2017-07-08T06:15:01.752Z,79.08
2017-07-08T06:15:27.216Z,79.17
2017-07-08T06:15:52.678Z,78.88
2017-07-08T06:16:18.196Z,78.98
2017-07-08T06:16:43.676Z,78.5
2017-07-08T06:17:09.155Z,78.69
2017-07-08T06:17:34.637Z,78.5
2017-07-08T06:18:00.108Z,78.5
2017-07-08T06:18:25.594Z,78.4
2017-07-08T06:18:51.092Z,78.69
2017-07-08T06:19:16.558Z,78.59
2017-07-08T06:19:42.056Z,78.88
2017-07-08T06:20:07.512Z,78.98
2017-07-08T06:20:33.041Z,78.98
2017-07-08T06:20:58.534Z,79.08
2017-07-08T06:21:24.028Z,78.4
2017-07-08T06:21:49.505Z,78.4
2017-07-08T06:22:14.971Z,78.59
2017-07-08T06:22:40.437Z,78.4
2017-07-08T06:23:05.941Z,78.83
2017-07-08T06:23:31.425Z,78.73
2017-07-08T06:23:56.890Z,78.92
2017-07-08T06:24:22.400Z,78.31
2017-07-08T06:24:47.871Z,78.5
2017-07-08T06:25:13.353Z,78.02
2017-07-08T06:25:38.807Z,78.34
2017-07-08T06:26:04.276Z,77.67
2017-07-08T06:26:29.772Z,77.86
2017-07-08T06:26:55.251Z,77.96
2017-07-08T06:27:20.736Z,77.86
2017-07-08T06:27:46.218Z,78.15
2017-07-08T06:28:11.695Z,78.25
2017-07-08T06:28:37.174Z,78.25
2017-07-08T06:29:02.650Z,78.25
2017-07-08T06:29:28.111Z,78.15
2017-07-08T06:29:53.577Z,77.86
2017-07-08T06:30:19.048Z,77.86
2017-07-08T06:30:44.540Z,77.86
2017-07-08T06:31:10.012Z,78.06
2017-07-08T06:31:35.496Z,77.76
2017-07-08T06:32:00.990Z,78.34
2017-07-08T06:32:26.493Z,78.15
2017-07-08T06:32:51.955Z,78.25
2017-07-08T06:33:17.422Z,78.06
2017-07-08T06:33:42.910Z,78.34
2017-07-08T06:34:08.388Z,78.15
2017-07-08T06:34:33.843Z,78.25
2017-07-08T06:34:59.286Z,78.25
2017-07-08T06:35:24.759Z,78.25
2017-07-08T06:35:50.245Z,78.15
2017-07-08T06:36:15.724Z,77.67
2017-07-08T06:36:41.220Z,78.15
2017-07-08T06:37:06.722Z,77.76
2017-07-08T06:37:32.221Z,78.06
2017-07-08T06:37:57.682Z,78.06
2017-07-08T06:38:23.205Z,78.15
2017-07-08T06:38:48.658Z,77.86
2017-07-08T06:39:14.127Z,77.96
2017-07-08T06:39:39.599Z,78.25
2017-07-08T06:40:05.097Z,78.15
2017-07-08T06:40:30.511Z,77.96
2017-07-08T06:40:55.945Z,77.96
2017-07-08T06:41:21.402Z,78.06
2017-07-08T06:41:46.941Z,77.67
2017-07-08T06:42:12.413Z,77.48
2017-07-08T06:42:37.900Z,77.48
2017-07-08T06:43:03.381Z,77.19
2017-07-08T06:43:28.857Z,77.48
2017-07-08T06:43:54.341Z,77.03
2017-07-08T06:44:19.866Z,76.93
2017-07-08T06:44:45.373Z,76.75
2017-07-08T06:45:10.818Z,76.8
2017-07-08T06:45:36.276Z,76.36
2017-07-08T06:46:01.795Z,76.75
2017-07-08T06:46:27.267Z,76.26
2017-07-08T06:46:52.745Z,76.26
2017-07-08T06:47:18.172Z,76.55
2017-07-08T06:47:43.669Z,76.75
2017-07-08T06:48:09.087Z,76.17
2017-07-08T06:48:34.559Z,76.17
2017-07-08T06:49:00.041Z,76.36
2017-07-08T06:49:25.495Z,76.26
2017-07-08T06:49:50.972Z,76.17
2017-07-08T06:50:16.433Z,75.97
2017-07-08T06:50:41.944Z,76.36
2017-07-08T06:51:07.396Z,76.55
2017-07-08T06:51:32.888Z,76.17
2017-07-08T06:51:58.344Z,76.26
2017-07-08T06:52:23.818Z,76.36
2017-07-08T06:52:49.263Z,76.07
2017-07-08T06:53:14.731Z,76.17
2017-07-08T06:53:40.267Z,76.1
2017-07-08T06:54:05.690Z,76.36
2017-07-08T06:54:31.168Z,76.1
2017-07-08T06:54:56.625Z,76.07
2017-07-08T06:55:22.097Z,76.26
2017-07-08T06:55:47.582Z,76.45
2017-07-08T06:56:13.035Z,76.59
2017-07-08T06:56:38.521Z,76.1
2017-07-08T06:57:03.980Z,76.1
2017-07-08T06:57:29.480Z,76.1
2017-07-08T06:57:54.982Z,76.01
2017-07-08T06:58:20.441Z,76.1
2017-07-08T06:58:45.916Z,76.2
2017-07-08T06:59:43.939Z,76.2
2017-07-08T07:00:09.430Z,76.1
2017-07-08T07:00:34.904Z,75.92
2017-07-08T07:01:00.373Z,75.82
2017-07-08T07:01:25.847Z,75.92
2017-07-08T07:01:51.342Z,75.92
2017-07-08T07:02:16.803Z,75.92
2017-07-08T07:02:42.265Z,75.62
2017-07-08T07:03:07.698Z,75.82
2017-07-08T07:03:33.180Z,75.82
2017-07-08T07:03:58.649Z,75.72
2017-07-08T07:04:24.096Z,75.92
2017-07-08T07:04:49.560Z,75.62
2017-07-08T07:05:15.037Z,75.92
2017-07-08T07:05:40.512Z,75.53
2017-07-08T07:06:05.986Z,75.47
2017-07-08T07:06:31.447Z,75.67
2017-07-08T07:06:56.933Z,75.47
2017-07-08T07:07:22.399Z,75.37
2017-07-08T07:07:47.854Z,75.57
2017-07-08T07:08:13.324Z,75.57
2017-07-08T07:08:38.866Z,75.67
2017-07-08T07:09:04.287Z,75.27
2017-07-08T07:09:29.791Z,75.18
2017-07-08T07:09:55.246Z,75.37
2017-07-08T07:10:20.743Z,75.18
2017-07-08T07:10:46.199Z,74.79
2017-07-08T07:11:11.677Z,74.6
2017-07-08T07:11:37.116Z,74.69
2017-07-08T07:12:02.605Z,74.79
2017-07-08T07:12:28.059Z,74.79
2017-07-08T07:12:53.540Z,74.69
2017-07-08T07:13:19.044Z,74.6
2017-07-08T07:13:44.519Z,74.6
2017-07-08T07:14:09.998Z,74.69
2017-07-08T07:14:35.458Z,74.21
2017-07-08T07:15:00.990Z,74.41
2017-07-08T07:15:26.414Z,74.12
2017-07-08T07:15:52.126Z,74.44
2017-07-08T07:16:17.623Z,74.35
2017-07-08T07:16:43.075Z,74.64
2017-07-08T07:17:08.525Z,74.35
2017-07-08T07:17:34.012Z,74.35
2017-07-08T07:17:59.476Z,73.28
2017-07-08T07:18:24.944Z,73.48
2017-07-08T07:18:50.425Z,73.48
2017-07-08T07:19:15.897Z,73.67
2017-07-08T07:19:41.401Z,73.48
2017-07-08T07:20:06.842Z,73.13
2017-07-08T07:20:32.310Z,73.09
2017-07-08T07:20:57.772Z,72.94
2017-07-08T07:21:23.275Z,72.61
2017-07-08T07:21:48.733Z,71.88
2017-07-08T07:22:14.188Z,71.3
2017-07-08T07:22:39.682Z,71
2017-07-08T07:23:05.154Z,70.9
2017-07-08T07:23:30.623Z,70.81
2017-07-08T07:23:56.089Z,70.72
2017-07-08T07:24:21.533Z,70.81
2017-07-08T07:24:46.988Z,70.14
2017-07-08T07:25:12.466Z,69.65
2017-07-08T07:25:37.981Z,69.46
2017-07-08T07:26:03.427Z,69.84
2017-07-08T07:26:28.899Z,69.56
2017-07-08T07:26:54.355Z,69.36
2017-07-08T07:27:19.795Z,69.46
2017-07-08T07:27:45.257Z,69.07
2017-07-08T07:28:10.721Z,68.98
2017-07-08T07:28:36.181Z,69.07
2017-07-08T07:29:01.640Z,69.46
2017-07-08T07:29:27.115Z,69.07
2017-07-08T07:29:52.614Z,69.26
2017-07-08T07:30:18.089Z,68.88
2017-07-08T07:30:43.567Z,69.07
2017-07-08T07:31:09.041Z,69.36
2017-07-08T07:31:34.499Z,69.74
2017-07-08T07:31:59.956Z,68.98
2017-07-08T07:32:25.449Z,69.26
2017-07-08T07:32:50.916Z,69.07
2017-07-08T07:33:16.382Z,69.74
2017-07-08T07:33:41.838Z,68.88
2017-07-08T07:34:07.292Z,69.07
2017-07-08T07:34:32.775Z,69.17
2017-07-08T07:34:58.259Z,68.88
2017-07-08T07:35:23.728Z,69.07
2017-07-08T07:35:49.227Z,69.17
2017-07-08T07:36:14.685Z,68.78
2017-07-08T07:36:40.159Z,68.78
2017-07-08T07:37:05.638Z,68.78
2017-07-08T07:37:31.117Z,68.78
2017-07-08T07:37:56.582Z,68.68
2017-07-08T07:38:22.054Z,68.3
2017-07-08T07:38:47.544Z,68.59
2017-07-08T07:39:13.006Z,68.72
2017-07-08T07:39:38.483Z,68.88
2017-07-08T07:40:03.982Z,68.59
2017-07-08T07:40:29.469Z,68.24
2017-07-08T07:40:54.938Z,68.43
2017-07-08T07:41:20.398Z,68.91
2017-07-08T07:41:45.860Z,68.52
2017-07-08T07:42:11.325Z,68.33
2017-07-08T07:42:36.804Z,68.52
2017-07-08T07:43:02.314Z,68.72
2017-07-08T07:43:28.168Z,68.14
2017-07-08T07:43:53.419Z,68.24
2017-07-08T07:44:18.954Z,68.33
2017-07-08T07:44:44.374Z,68.14
2017-07-08T07:45:09.970Z,68.14
2017-07-08T07:45:35.457Z,68.14
2017-07-08T07:46:00.918Z,67.94
2017-07-08T07:46:26.620Z,67.75
2017-07-08T07:46:52.208Z,67.56
2017-07-08T07:47:17.686Z,67.56
2017-07-08T07:47:43.137Z,67.94
2017-07-08T07:48:08.578Z,67.56
2017-07-08T07:48:34.050Z,66.88
2017-07-08T07:48:59.590Z,67.17
2017-07-08T07:49:25.077Z,66.98
2017-07-08T07:49:50.567Z,67.17
2017-07-08T07:50:16.034Z,67.85
2017-07-08T07:50:41.500Z,67.56
2017-07-08T07:51:06.994Z,67.75
2017-07-08T07:51:32.483Z,66.98
2017-07-08T07:52:30.494Z,66.98
2017-07-08T07:52:55.974Z,67.17
2017-07-08T07:53:21.440Z,66.69
2017-07-08T07:53:46.930Z,66.88
2017-07-08T07:54:12.401Z,67.46
2017-07-08T07:54:37.898Z,67.24
2017-07-08T07:55:03.360Z,67.14
2017-07-08T07:55:28.804Z,67.04
2017-07-08T07:55:54.276Z,67.14
2017-07-08T07:56:19.746Z,67.04
2017-07-08T07:56:45.245Z,67.24
2017-07-08T07:57:10.687Z,66.85
2017-07-08T07:57:36.141Z,67.14
2017-07-08T07:58:01.627Z,67.14
2017-07-08T07:58:27.107Z,67.14
2017-07-08T07:58:52.572Z,67.04
2017-07-08T07:59:18.067Z,66.94
2017-07-08T07:59:43.538Z,67.33
2017-07-08T08:00:08.998Z,67.33
2017-07-08T08:00:34.477Z,67.72
2017-07-08T08:00:59.938Z,67.62
2017-07-08T08:01:25.428Z,67.43
2017-07-08T08:01:50.918Z,67.82
2017-07-08T08:02:16.381Z,67.62
2017-07-08T08:02:41.816Z,68.01
2017-07-08T08:03:07.283Z,67.82
2017-07-08T08:03:32.763Z,68.01
2017-07-08T08:03:58.253Z,68.01
2017-07-08T08:04:23.706Z,68.01
2017-07-08T08:04:49.187Z,67.94
2017-07-08T08:05:14.662Z,67.75
2017-07-08T08:05:40.153Z,67.36
2017-07-08T08:06:05.600Z,67.27
2017-07-08T08:06:31.090Z,67.08
2017-07-08T08:06:56.594Z,67.08
2017-07-08T08:07:22.046Z,67.27
2017-07-08T08:07:47.525Z,66.53
2017-07-08T08:08:12.990Z,66.2
2017-07-08T08:08:38.469Z,66.69
2017-07-08T08:09:03.980Z,66.53
2017-07-08T08:09:29.449Z,66.43
2017-07-08T08:09:54.943Z,65.85
2017-07-08T08:10:20.429Z,65.66
2017-07-08T08:10:45.916Z,63.63
2017-07-08T08:11:11.429Z,63.05
2017-07-08T08:11:36.899Z,63.14
2017-07-08T08:12:02.365Z,63.73
2017-07-08T08:12:27.871Z,63.73
2017-07-08T08:12:53.354Z,63.73
2017-07-08T08:13:18.824Z,63.63
2017-07-08T08:13:44.297Z,63.63
2017-07-08T08:14:09.783Z,63.63
2017-07-08T08:14:35.254Z,63.82
2017-07-08T08:15:00.746Z,63.53
2017-07-08T08:15:26.187Z,63.63
2017-07-08T08:15:51.683Z,63.82
2017-07-08T08:16:17.214Z,63.43
2017-07-08T08:16:42.678Z,63.21
2017-07-08T08:17:08.162Z,63.31
2017-07-08T08:17:33.634Z,63.5
2017-07-08T08:17:59.121Z,63.4
2017-07-08T08:18:24.625Z,63.21
2017-07-08T08:18:50.128Z,63.4
2017-07-08T08:19:15.607Z,63.69
2017-07-08T08:19:41.123Z,63.6
2017-07-08T08:20:06.598Z,63.69
2017-07-08T08:20:32.088Z,63.98
2017-07-08T08:20:57.528Z,63.98
2017-07-08T08:21:23.043Z,63.5
2017-07-08T08:21:48.502Z,63.6
2017-07-08T08:22:14.018Z,63.79
2017-07-08T08:22:39.471Z,63.4
2017-07-08T08:23:04.971Z,63.5
2017-07-08T08:23:30.465Z,63.69
2017-07-08T08:23:55.931Z,63.5
2017-07-08T08:24:21.384Z,63.89
2017-07-08T08:24:46.874Z,64.01
2017-07-08T08:25:12.342Z,64.01
2017-07-08T08:25:37.829Z,64.01
2017-07-08T08:26:03.260Z,64.01
2017-07-08T08:26:28.732Z,63.92
2017-07-08T08:26:54.213Z,63.66
2017-07-08T08:27:19.697Z,63.46
2017-07-08T08:27:45.163Z,63.46
2017-07-08T08:28:10.664Z,63.46
2017-07-08T08:28:36.118Z,62.59
2017-07-08T08:29:01.561Z,62.79
2017-07-08T08:29:27.026Z,62.43
2017-07-08T08:29:52.501Z,62.04
2017-07-08T08:30:17.962Z,61.85
2017-07-08T08:30:43.455Z,61.27
2017-07-08T08:31:08.937Z,61.27
2017-07-08T08:31:34.409Z,61.08
2017-07-08T08:31:59.891Z,60.72
2017-07-08T08:32:25.394Z,61.21
2017-07-08T08:32:50.861Z,60.82
2017-07-08T08:33:16.310Z,60.24
2017-07-08T08:33:41.783Z,60.43
2017-07-08T08:34:07.256Z,59.75
2017-07-08T08:34:32.714Z,59.36
2017-07-08T08:34:58.199Z,58.88
2017-07-08T08:35:23.665Z,59.2
2017-07-08T08:35:49.198Z,58.81
2017-07-08T08:36:14.664Z,58.91
2017-07-08T08:36:40.148Z,59.2
2017-07-08T08:37:05.614Z,59
2017-07-08T08:37:31.096Z,58.81
2017-07-08T08:37:56.599Z,58.72
2017-07-08T08:38:22.087Z,58.52
2017-07-08T08:38:47.543Z,58.04
2017-07-08T08:39:13.029Z,57.75
2017-07-08T08:39:38.514Z,57.75
2017-07-08T08:40:03.997Z,57.36
2017-07-08T08:40:29.470Z,57.94
2017-07-08T08:40:54.945Z,58.04
2017-07-08T08:41:20.395Z,57.55
2017-07-08T08:41:45.860Z,57.84
2017-07-08T08:42:11.347Z,57.94
2017-07-08T08:42:36.809Z,57.55
2017-07-08T08:43:02.293Z,57.55
2017-07-08T08:43:27.739Z,57.65
2017-07-08T08:43:53.250Z,57.55
2017-07-08T08:44:18.693Z,57.84
2017-07-08T08:44:44.161Z,58.04
2017-07-08T08:45:09.643Z,57.65
2017-07-08T08:45:35.120Z,57.65
2017-07-08T08:46:00.629Z,57.65
2017-07-08T08:46:26.081Z,57.65
2017-07-08T08:46:51.567Z,57.94
2017-07-08T08:47:17.075Z,57.36
2017-07-08T08:47:42.541Z,57.84
2017-07-08T08:48:08.026Z,57.94
2017-07-08T08:48:33.557Z,57.75
2017-07-08T08:48:59.019Z,57.75
2017-07-08T08:49:24.552Z,57.65
2017-07-08T08:49:50.072Z,57.84
2017-07-08T08:50:15.523Z,57.75
2017-07-08T08:50:40.996Z,57.65
2017-07-08T08:51:06.483Z,57.55
2017-07-08T08:51:31.989Z,57.75
2017-07-08T08:51:57.498Z,57.84
2017-07-08T08:52:22.983Z,58.42
2017-07-08T08:52:48.464Z,57.75
2017-07-08T08:53:13.938Z,57.84
2017-07-08T08:53:39.452Z,57.65
2017-07-08T08:54:05.137Z,58.04
2017-07-08T08:54:30.588Z,57.75
2017-07-08T08:54:56.064Z,57.75
2017-07-08T08:55:21.522Z,57.94
2017-07-08T08:55:47.025Z,58.23
2017-07-08T08:56:12.473Z,58.23
2017-07-08T08:56:37.979Z,58.01
2017-07-08T08:57:03.467Z,58.72
2017-07-08T08:57:28.929Z,58.62
2017-07-08T08:57:54.407Z,58.42
2017-07-08T08:58:19.879Z,58.62
2017-07-08T08:58:45.358Z,58.69
2017-07-08T08:59:10.845Z,58.62
2017-07-08T09:00:08.869Z,58.23
2017-07-08T09:00:34.350Z,58.33
2017-07-08T09:00:59.846Z,58.2
2017-07-08T09:01:25.336Z,58.52
2017-07-08T09:01:50.814Z,58.62
2017-07-08T09:02:16.297Z,58.52
2017-07-08T09:02:41.769Z,58.52
2017-07-08T09:03:07.249Z,58.33
2017-07-08T09:03:32.761Z,58.04
2017-07-08T09:03:58.238Z,58.62
2017-07-08T09:04:23.700Z,58.62
2017-07-08T09:04:49.166Z,58.59
2017-07-08T09:05:14.619Z,59.1
2017-07-08T09:05:40.104Z,58.91
2017-07-08T09:06:05.569Z,59.1
2017-07-08T09:06:31.058Z,59.1
2017-07-08T09:06:56.572Z,58.91
2017-07-08T09:07:22.014Z,58.72
2017-07-08T09:07:47.495Z,58.81
2017-07-08T09:08:13.017Z,58.91
2017-07-08T09:08:38.436Z,58.62
2017-07-08T09:09:03.956Z,58.04
2017-07-08T09:09:29.463Z,57.45
2017-07-08T09:09:54.908Z,57.75
2017-07-08T09:10:20.421Z,57.75
2017-07-08T09:10:45.913Z,57.94
2017-07-08T09:11:11.380Z,57.84
2017-07-08T09:11:36.833Z,57.65
2017-07-08T09:12:02.308Z,57.84
2017-07-08T09:12:27.800Z,57.65
2017-07-08T09:12:53.272Z,57.55
2017-07-08T09:13:18.750Z,58.04
2017-07-08T09:13:44.241Z,58.42
2017-07-08T09:14:09.691Z,58.33
2017-07-08T09:14:35.169Z,58.23
2017-07-08T09:15:00.666Z,58.33
2017-07-08T09:15:26.126Z,58.04
2017-07-08T09:15:51.600Z,57.75
2017-07-08T09:16:17.076Z,57.84
2017-07-08T09:16:42.557Z,58.74
2017-07-08T09:17:08.033Z,57.87
2017-07-08T09:17:33.501Z,57.58
2017-07-08T09:17:58.952Z,57.87
2017-07-08T09:18:24.423Z,57.78
2017-07-08T09:18:49.889Z,58.45
2017-07-08T09:19:15.348Z,57.78
2017-07-08T09:19:40.822Z,57.58
2017-07-08T09:20:06.319Z,57
2017-07-08T09:20:31.754Z,57.19
2017-07-08T09:20:57.249Z,57.09
2017-07-08T09:21:22.730Z,57.09
2017-07-08T09:21:48.226Z,57.19
2017-07-08T09:22:13.668Z,57
2017-07-08T09:22:39.156Z,56.81
2017-07-08T09:23:04.615Z,57.48
2017-07-08T09:23:30.123Z,56.9
2017-07-08T09:23:55.605Z,56.61
2017-07-08T09:24:21.052Z,55.93
2017-07-08T09:24:46.555Z,56.32
2017-07-08T09:25:12.067Z,56.13
2017-07-08T09:25:37.617Z,56.23
2017-07-08T09:26:03.000Z,55.93
2017-07-08T09:26:28.508Z,56.41
2017-07-08T09:26:53.976Z,56.41
2017-07-08T09:27:19.472Z,56.41
2017-07-08T09:27:44.945Z,56.13
2017-07-08T09:28:10.415Z,55.93
2017-07-08T09:28:35.860Z,55.35
2017-07-08T09:29:01.316Z,55.44
2017-07-08T09:29:26.781Z,55.54
2017-07-08T09:29:52.270Z,55.74
2017-07-08T09:30:17.764Z,55.74
2017-07-08T09:30:43.250Z,56.23
2017-07-08T09:31:08.746Z,56.23
2017-07-08T09:31:34.241Z,56.61
2017-07-08T09:31:59.709Z,56.03
2017-07-08T09:32:25.165Z,55.74
2017-07-08T09:32:50.639Z,55.44
2017-07-08T09:33:16.117Z,55.35
2017-07-08T09:33:41.588Z,55.83
2017-07-08T09:34:07.038Z,54.86
2017-07-08T09:34:32.529Z,55.26
2017-07-08T09:34:58.014Z,55.35
2017-07-08T09:35:23.503Z,55.74
2017-07-08T09:35:48.998Z,55.83
2017-07-08T09:36:14.467Z,56.03
2017-07-08T09:36:39.950Z,55.83
2017-07-08T09:37:05.459Z,56.13
2017-07-08T09:37:30.933Z,56.51
2017-07-08T09:37:56.431Z,56.51
2017-07-08T09:38:21.894Z,56.51
2017-07-08T09:38:47.399Z,56.51
2017-07-08T09:39:12.880Z,56.81
2017-07-08T09:39:38.345Z,56.41
2017-07-08T09:40:03.831Z,56.9
2017-07-08T09:40:29.286Z,56.51
2017-07-08T09:40:54.743Z,56.51
2017-07-08T09:41:20.221Z,56.71
2017-07-08T09:41:45.680Z,56.61
2017-07-08T09:42:11.178Z,56.71
2017-07-08T09:42:36.637Z,56.61
2017-07-08T09:43:02.133Z,57
2017-07-08T09:43:27.650Z,57.29
2017-07-08T09:43:53.056Z,56.61
2017-07-08T09:44:18.522Z,56.41
2017-07-08T09:44:44.048Z,57.19
2017-07-08T09:45:09.487Z,57
2017-07-08T09:45:34.968Z,57
2017-07-08T09:46:00.446Z,56.64
2017-07-08T09:46:25.894Z,56.64
2017-07-08T09:46:51.368Z,57.32
2017-07-08T09:47:16.829Z,57.22
2017-07-08T09:47:42.307Z,56.83
2017-07-08T09:48:07.799Z,57.22
2017-07-08T09:48:33.266Z,57.32
2017-07-08T09:48:58.751Z,57.12
2017-07-08T09:49:24.249Z,56.83
2017-07-08T09:49:49.745Z,57.32
2017-07-08T09:50:15.220Z,56.54
2017-07-08T09:50:40.717Z,55.96
2017-07-08T09:51:06.169Z,56.35
2017-07-08T09:51:31.634Z,55.77
2017-07-08T09:51:57.137Z,55.47
2017-07-08T09:52:22.611Z,55.28
2017-07-08T09:52:48.051Z,55.38
2017-07-08T09:53:13.534Z,55.38
2017-07-08T09:53:39.030Z,55.08
2017-07-08T09:54:04.506Z,54.9
2017-07-08T09:54:29.997Z,55.28
2017-07-08T09:54:55.479Z,55.18
2017-07-08T09:55:20.988Z,55.26
2017-07-08T09:55:46.430Z,55.26
2017-07-08T09:56:11.897Z,54.96
2017-07-08T09:56:37.371Z,55.16
2017-07-08T09:57:02.875Z,54.96
2017-07-08T09:57:28.356Z,55.06
2017-07-08T09:57:53.816Z,55.93
2017-07-08T09:58:19.277Z,55.64
2017-07-08T09:58:44.758Z,55.74
2017-07-08T09:59:10.209Z,55.93
2017-07-08T09:59:35.685Z,56.15
2017-07-08T10:00:01.138Z,56.15
2017-07-08T10:00:26.636Z,56.64
2017-07-08T10:00:52.148Z,55.96
2017-07-08T10:01:17.644Z,55.96
2017-07-08T10:01:43.107Z,56.15
2017-07-08T10:02:08.592Z,56.05
2017-07-08T10:02:34.045Z,56.15
2017-07-08T10:02:59.543Z,55.96
2017-07-08T10:03:25.008Z,56.15
2017-07-08T10:03:50.491Z,56.45
2017-07-08T10:04:15.987Z,56.35
2017-07-08T10:04:41.477Z,56.54
2017-07-08T10:05:06.973Z,56.74
2017-07-08T10:05:32.435Z,56.93
2017-07-08T10:05:57.931Z,57.06
2017-07-08T10:06:23.418Z,56.74
2017-07-08T10:06:48.875Z,56.67
2017-07-08T10:07:14.346Z,56.76
2017-07-08T10:07:39.824Z,56.47
2017-07-08T10:08:05.309Z,55.89
2017-07-08T10:08:30.766Z,56.47
2017-07-08T10:08:56.301Z,56.47
2017-07-08T10:09:21.719Z,56.37
2017-07-08T10:09:47.211Z,56.57
2017-07-08T10:10:12.727Z,56.57
2017-07-08T10:10:38.201Z,56.57
2017-07-08T10:11:03.700Z,56.76
2017-07-08T10:11:29.161Z,56.86
2017-07-08T10:11:54.622Z,56.76
2017-07-08T10:12:20.112Z,56.67
2017-07-08T10:12:45.584Z,56.76
2017-07-08T10:13:11.048Z,56.96
2017-07-08T10:13:36.544Z,56.67
2017-07-08T10:14:02.011Z,56.57
2017-07-08T10:14:27.471Z,56.57
2017-07-08T10:14:53.000Z,56.67
2017-07-08T10:15:18.461Z,56.57
2017-07-08T10:15:43.898Z,56.37
2017-07-08T10:16:09.368Z,56.37
2017-07-08T10:16:34.844Z,56.47
2017-07-08T10:17:00.338Z,56.28
2017-07-08T10:17:25.805Z,56.37
2017-07-08T10:17:51.253Z,56.47
2017-07-08T10:18:16.743Z,56.18
2017-07-08T10:18:42.222Z,55.43
2017-07-08T10:19:07.698Z,55.99
2017-07-08T10:19:33.176Z,55.79
2017-07-08T10:19:58.630Z,55.79
2017-07-08T10:20:24.136Z,55.89
2017-07-08T10:20:49.607Z,56.01
2017-07-08T10:21:15.062Z,55.82
2017-07-08T10:21:40.524Z,55.82
2017-07-08T10:22:05.998Z,55.73
2017-07-08T10:22:31.449Z,55.92
2017-07-08T10:22:56.915Z,55.63
2017-07-08T10:23:22.414Z,55.14
2017-07-08T10:23:47.863Z,55.33
2017-07-08T10:24:13.358Z,55.43
2017-07-08T10:24:38.836Z,55.33
2017-07-08T10:25:04.294Z,55.04
2017-07-08T10:25:29.745Z,55.24
2017-07-08T10:25:55.234Z,55.24
2017-07-08T10:26:20.699Z,54.75
2017-07-08T10:26:46.188Z,54.85
2017-07-08T10:27:11.680Z,55.33
2017-07-08T10:27:37.186Z,54.94
2017-07-08T10:28:02.674Z,55.14
2017-07-08T10:28:28.135Z,54.94
2017-07-08T10:28:53.680Z,55.14
2017-07-08T10:29:19.131Z,55.04
2017-07-08T10:29:44.622Z,54.85
2017-07-08T10:30:10.102Z,54.75
2017-07-08T10:30:35.564Z,55.14
2017-07-08T10:31:01.051Z,54.75
2017-07-08T10:31:26.517Z,55.14
2017-07-08T10:31:51.990Z,55.14
2017-07-08T10:32:17.458Z,55.04
2017-07-08T10:32:42.942Z,55.04
2017-07-08T10:33:08.393Z,55.53
2017-07-08T10:33:33.884Z,55.53
2017-07-08T10:33:59.373Z,54.85
2017-07-08T10:34:24.830Z,54.85
2017-07-08T10:34:50.318Z,54.36
2017-07-08T10:35:15.800Z,54.07
2017-07-08T10:35:41.267Z,54.36
2017-07-08T10:36:06.763Z,54.68
2017-07-08T10:36:32.259Z,54.85
2017-07-08T10:36:57.746Z,54.97
2017-07-08T10:37:23.224Z,54.97
2017-07-08T10:37:48.675Z,55.04
2017-07-08T10:38:14.169Z,55.17
2017-07-08T10:38:39.652Z,54.78
2017-07-08T10:39:05.138Z,54.58
2017-07-08T10:39:30.624Z,55.07
2017-07-08T10:39:56.082Z,54.68
2017-07-08T10:40:21.559Z,54.58
2017-07-08T10:40:47.073Z,54.58
2017-07-08T10:41:12.543Z,54.29
2017-07-08T10:41:38.007Z,54.2
2017-07-08T10:42:03.494Z,54.39
2017-07-08T10:42:28.992Z,54.39
2017-07-08T10:42:54.465Z,54.39
2017-07-08T10:43:19.949Z,54.29
2017-07-08T10:43:45.462Z,54.58
2017-07-08T10:44:10.919Z,53.81
2017-07-08T10:44:36.411Z,53.91
2017-07-08T10:45:01.895Z,53.81
2017-07-08T10:45:27.372Z,53.81
2017-07-08T10:45:52.847Z,53.71
2017-07-08T10:46:18.317Z,53.61
2017-07-08T10:46:43.783Z,53.42
2017-07-08T10:47:09.256Z,54.1
2017-07-08T10:47:34.741Z,53.91
2017-07-08T10:48:00.237Z,53.91
2017-07-08T10:48:25.731Z,53.91
2017-07-08T10:48:51.235Z,53.83
2017-07-08T10:49:16.727Z,53.81
2017-07-08T10:49:42.204Z,53.91
2017-07-08T10:50:07.661Z,53.54
2017-07-08T10:50:33.136Z,53.71
2017-07-08T10:50:58.599Z,53.83
2017-07-08T10:51:24.074Z,53.06
2017-07-08T10:51:49.533Z,53.25
2017-07-08T10:52:15.015Z,53.16
2017-07-08T10:52:40.514Z,53.13
2017-07-08T10:53:06.034Z,53.06
2017-07-08T10:53:31.510Z,52.96
2017-07-08T10:53:57.003Z,53.16
2017-07-08T10:54:22.456Z,53.45
2017-07-08T10:54:47.913Z,53.25
2017-07-08T10:55:13.383Z,53.45
2017-07-08T10:55:38.877Z,53.54
2017-07-08T10:56:04.331Z,53.54
2017-07-08T10:56:29.787Z,53.74
2017-07-08T10:56:55.281Z,53.83
2017-07-08T10:57:20.751Z,53.74
2017-07-08T10:57:46.249Z,53.74
2017-07-08T10:58:11.726Z,53.25
2017-07-08T10:58:37.203Z,53.35
2017-07-08T10:59:02.703Z,53.83
2017-07-08T10:59:28.189Z,53.74
2017-07-08T10:59:53.630Z,53.64
2017-07-08T11:00:19.090Z,53.16
2017-07-08T11:00:44.556Z,53.06
2017-07-08T11:01:10.043Z,53.54
2017-07-08T11:01:35.518Z,53.06
2017-07-08T11:02:00.997Z,53.06
2017-07-08T11:02:26.458Z,53.16